sensor_id;sensor_type;location;lat;lon;timestamp;P1;durP1;ratioP1;P2;durP2;ratioP2
72065;SDS011;59939;52.516;13.420;2023-04-24T00:02:13;13.05;;;5.95;;
72065;SDS011;59939;52.516;13.420;2023-04-24T00:05:17;14.15;;;6.57;;
72065;SDS011;59939;52.516;13.420;2023-04-24T00:08:21;14.68;;;6.25;;
72065;SDS011;59939;52.516;13.420;2023-04-24T00:11:26;14.05;;;6.07;;
72065;SDS011;59939;52.516;13.420;2023-04-24T00:14:31;13.70;;;6.43;;
72065;SDS011;59939;52.516;13.420;2023-04-24T00:17:34;14.07;;;6.53;;
72065;SDS011;59939;52.516;13.420;2023-04-24T00:20:38;13.68;;;6.28;;
72065;SDS011;59939;52.516;13.420;2023-04-24T00:23:43;13.98;;;6.07;;
72065;SDS011;59939;52.516;13.420;2023-04-24T00:26:48;13.25;;;5.60;;
72065;SDS011;59939;52.516;13.420;2023-04-24T00:29:52;15.30;;;6.13;;
72065;SDS011;59939;52.516;13.420;2023-04-24T00:32:55;14.68;;;6.50;;
72065;SDS011;59939;52.516;13.420;2023-04-24T00:36:00;14.63;;;6.20;;
72065;SDS011;59939;52.516;13.420;2023-04-24T00:39:04;14.80;;;6.80;;
72065;SDS011;59939;52.516;13.420;2023-04-24T00:42:08;14.70;;;7.00;;
72065;SDS011;59939;52.516;13.420;2023-04-24T00:45:11;14.80;;;6.90;;
72065;SDS011;59939;52.516;13.420;2023-04-24T00:48:15;13.70;;;6.45;;
72065;SDS011;59939;52.516;13.420;2023-04-24T00:51:20;14.27;;;6.43;;
72065;SDS011;59939;52.516;13.420;2023-04-24T00:54:24;13.77;;;6.28;;
72065;SDS011;59939;52.516;13.420;2023-04-24T00:57:28;14.38;;;6.78;;
72065;SDS011;59939;52.516;13.420;2023-04-24T01:00:32;16.93;;;6.90;;
72065;SDS011;59939;52.516;13.420;2023-04-24T01:03:36;12.80;;;6.05;;
72065;SDS011;59939;52.516;13.420;2023-04-24T01:06:41;15.07;;;6.95;;
72065;SDS011;59939;52.516;13.420;2023-04-24T01:09:47;16.13;;;6.53;;
72065;SDS011;59939;52.516;13.420;2023-04-24T01:12:52;13.75;;;6.10;;
72065;SDS011;59939;52.516;13.420;2023-04-24T01:15:56;16.02;;;7.00;;
72065;SDS011;59939;52.516;13.420;2023-04-24T01:19:00;14.02;;;6.28;;
72065;SDS011;59939;52.516;13.420;2023-04-24T01:22:11;15.45;;;6.25;;
72065;SDS011;59939;52.516;13.420;2023-04-24T01:25:16;12.93;;;6.57;;
72065;SDS011;59939;52.516;13.420;2023-04-24T01:28:19;14.05;;;6.28;;
72065;SDS011;59939;52.516;13.420;2023-04-24T01:31:24;13.83;;;6.57;;
72065;SDS011;59939;52.516;13.420;2023-04-24T01:34:30;15.27;;;5.97;;
72065;SDS011;59939;52.516;13.420;2023-04-24T01:37:33;17.07;;;6.70;;
72065;SDS011;59939;52.516;13.420;2023-04-24T01:40:37;14.27;;;6.80;;
72065;SDS011;59939;52.516;13.420;2023-04-24T01:43:41;13.98;;;7.03;;
72065;SDS011;59939;52.516;13.420;2023-04-24T01:46:45;13.10;;;6.38;;
72065;SDS011;59939;52.516;13.420;2023-04-24T01:49:50;17.10;;;7.57;;
72065;SDS011;59939;52.516;13.420;2023-04-24T01:52:53;14.30;;;6.88;;
72065;SDS011;59939;52.516;13.420;2023-04-24T01:55:57;15.03;;;7.33;;
72065;SDS011;59939;52.516;13.420;2023-04-24T01:59:02;14.80;;;7.47;;
72065;SDS011;59939;52.516;13.420;2023-04-24T02:02:05;14.40;;;6.50;;
72065;SDS011;59939;52.516;13.420;2023-04-24T02:05:11;17.80;;;7.20;;
72065;SDS011;59939;52.516;13.420;2023-04-24T02:08:15;13.75;;;6.78;;
72065;SDS011;59939;52.516;13.420;2023-04-24T02:11:18;16.17;;;7.07;;
72065;SDS011;59939;52.516;13.420;2023-04-24T02:14:22;16.03;;;7.37;;
72065;SDS011;59939;52.516;13.420;2023-04-24T02:17:26;17.45;;;7.78;;
72065;SDS011;59939;52.516;13.420;2023-04-24T02:20:30;17.47;;;8.43;;
72065;SDS011;59939;52.516;13.420;2023-04-24T02:23:35;15.90;;;7.93;;
72065;SDS011;59939;52.516;13.420;2023-04-24T02:26:39;14.57;;;7.07;;
72065;SDS011;59939;52.516;13.420;2023-04-24T02:29:42;17.05;;;7.70;;
72065;SDS011;59939;52.516;13.420;2023-04-24T02:32:47;15.63;;;7.28;;
72065;SDS011;59939;52.516;13.420;2023-04-24T02:35:51;17.15;;;8.00;;
72065;SDS011;59939;52.516;13.420;2023-04-24T02:38:54;15.55;;;8.05;;
72065;SDS011;59939;52.516;13.420;2023-04-24T02:41:58;17.88;;;8.20;;
72065;SDS011;59939;52.516;13.420;2023-04-24T02:45:03;15.27;;;6.88;;
72065;SDS011;59939;52.516;13.420;2023-04-24T02:48:07;16.38;;;8.10;;
72065;SDS011;59939;52.516;13.420;2023-04-24T02:51:10;16.88;;;7.97;;
72065;SDS011;59939;52.516;13.420;2023-04-24T02:54:14;13.57;;;6.50;;
72065;SDS011;59939;52.516;13.420;2023-04-24T02:57:19;15.17;;;7.77;;
72065;SDS011;59939;52.516;13.420;2023-04-24T03:00:22;16.73;;;8.73;;
72065;SDS011;59939;52.516;13.420;2023-04-24T03:03:26;14.32;;;7.28;;
72065;SDS011;59939;52.516;13.420;2023-04-24T03:06:30;17.00;;;8.65;;
72065;SDS011;59939;52.516;13.420;2023-04-24T03:09:36;14.60;;;6.67;;
72065;SDS011;59939;52.516;13.420;2023-04-24T03:12:40;15.05;;;7.45;;
72065;SDS011;59939;52.516;13.420;2023-04-24T03:15:44;14.90;;;7.77;;
72065;SDS011;59939;52.516;13.420;2023-04-24T03:18:49;16.17;;;7.97;;
72065;SDS011;59939;52.516;13.420;2023-04-24T03:21:54;11.73;;;5.05;;
72065;SDS011;59939;52.516;13.420;2023-04-24T03:24:58;14.45;;;7.30;;
72065;SDS011;59939;52.516;13.420;2023-04-24T03:28:03;10.50;;;5.05;;
72065;SDS011;59939;52.516;13.420;2023-04-24T03:31:13;11.65;;;5.00;;
72065;SDS011;59939;52.516;13.420;2023-04-24T03:34:18;15.90;;;7.03;;
72065;SDS011;59939;52.516;13.420;2023-04-24T03:37:23;14.25;;;7.00;;
72065;SDS011;59939;52.516;13.420;2023-04-24T03:40:38;16.17;;;7.38;;
72065;SDS011;59939;52.516;13.420;2023-04-24T03:43:53;12.93;;;6.43;;
72065;SDS011;59939;52.516;13.420;2023-04-24T03:46:57;14.87;;;6.37;;
72065;SDS011;59939;52.516;13.420;2023-04-24T03:50:02;15.13;;;7.18;;
72065;SDS011;59939;52.516;13.420;2023-04-24T03:53:07;16.73;;;8.02;;
72065;SDS011;59939;52.516;13.420;2023-04-24T03:56:15;15.32;;;7.32;;
72065;SDS011;59939;52.516;13.420;2023-04-24T03:59:19;15.25;;;7.25;;
72065;SDS011;59939;52.516;13.420;2023-04-24T04:02:30;16.13;;;6.95;;
72065;SDS011;59939;52.516;13.420;2023-04-24T04:05:35;14.50;;;7.20;;
72065;SDS011;59939;52.516;13.420;2023-04-24T04:08:39;15.48;;;7.10;;
72065;SDS011;59939;52.516;13.420;2023-04-24T04:11:43;16.23;;;6.93;;
72065;SDS011;59939;52.516;13.420;2023-04-24T04:14:48;15.35;;;7.15;;
72065;SDS011;59939;52.516;13.420;2023-04-24T04:17:52;15.40;;;7.10;;
72065;SDS011;59939;52.516;13.420;2023-04-24T04:20:56;18.23;;;7.10;;
72065;SDS011;59939;52.516;13.420;2023-04-24T04:24:01;16.43;;;7.27;;
72065;SDS011;59939;52.516;13.420;2023-04-24T04:27:10;15.43;;;7.28;;
72065;SDS011;59939;52.516;13.420;2023-04-24T04:30:22;15.02;;;7.15;;
72065;SDS011;59939;52.516;13.420;2023-04-24T04:33:33;14.70;;;7.72;;
72065;SDS011;59939;52.516;13.420;2023-04-24T04:36:37;16.25;;;7.50;;
72065;SDS011;59939;52.516;13.420;2023-04-24T04:40:06;15.68;;;7.70;;
72065;SDS011;59939;52.516;13.420;2023-04-24T04:43:16;19.30;;;7.72;;
72065;SDS011;59939;52.516;13.420;2023-04-24T04:46:27;15.30;;;6.97;;
72065;SDS011;59939;52.516;13.420;2023-04-24T04:49:50;16.13;;;7.22;;
72065;SDS011;59939;52.516;13.420;2023-04-24T04:52:58;16.05;;;7.45;;
72065;SDS011;59939;52.516;13.420;2023-04-24T04:56:08;16.40;;;7.80;;
72065;SDS011;59939;52.516;13.420;2023-04-24T04:59:17;13.77;;;6.25;;
72065;SDS011;59939;52.516;13.420;2023-04-24T05:02:22;12.23;;;5.55;;
72065;SDS011;59939;52.516;13.420;2023-04-24T05:05:29;14.88;;;6.32;;
72065;SDS011;59939;52.516;13.420;2023-04-24T05:08:40;14.55;;;6.45;;
72065;SDS011;59939;52.516;13.420;2023-04-24T05:11:49;13.98;;;6.75;;
72065;SDS011;59939;52.516;13.420;2023-04-24T05:14:53;13.27;;;6.00;;
72065;SDS011;59939;52.516;13.420;2023-04-24T05:17:58;13.93;;;6.07;;
72065;SDS011;59939;52.516;13.420;2023-04-24T05:21:03;16.70;;;6.30;;
72065;SDS011;59939;52.516;13.420;2023-04-24T05:24:09;12.98;;;5.88;;
72065;SDS011;59939;52.516;13.420;2023-04-24T05:27:22;16.90;;;6.38;;
72065;SDS011;59939;52.516;13.420;2023-04-24T05:34:05;13.68;;;5.57;;
72065;SDS011;59939;52.516;13.420;2023-04-24T05:37:16;9.95;;;4.30;;
72065;SDS011;59939;52.516;13.420;2023-04-24T05:40:22;10.10;;;3.70;;
72065;SDS011;59939;52.516;13.420;2023-04-24T05:43:26;9.75;;;3.55;;
72065;SDS011;59939;52.516;13.420;2023-04-24T05:46:30;11.40;;;4.15;;
72065;SDS011;59939;52.516;13.420;2023-04-24T05:49:34;7.57;;;2.58;;
72065;SDS011;59939;52.516;13.420;2023-04-24T05:52:37;6.30;;;2.40;;
72065;SDS011;59939;52.516;13.420;2023-04-24T05:55:50;7.25;;;2.95;;
72065;SDS011;59939;52.516;13.420;2023-04-24T05:58:56;7.47;;;2.45;;
72065;SDS011;59939;52.516;13.420;2023-04-24T06:02:00;5.13;;;2.35;;
72065;SDS011;59939;52.516;13.420;2023-04-24T06:05:05;8.85;;;3.05;;
72065;SDS011;59939;52.516;13.420;2023-04-24T06:08:09;8.85;;;2.80;;
72065;SDS011;59939;52.516;13.420;2023-04-24T06:11:15;9.02;;;3.22;;
72065;SDS011;59939;52.516;13.420;2023-04-24T06:14:20;7.18;;;2.75;;
72065;SDS011;59939;52.516;13.420;2023-04-24T06:17:42;7.38;;;2.80;;
72065;SDS011;59939;52.516;13.420;2023-04-24T06:20:48;7.15;;;2.70;;
72065;SDS011;59939;52.516;13.420;2023-04-24T06:23:51;6.43;;;2.45;;
72065;SDS011;59939;52.516;13.420;2023-04-24T06:26:56;8.57;;;2.78;;
72065;SDS011;59939;52.516;13.420;2023-04-24T06:30:02;6.70;;;2.47;;
72065;SDS011;59939;52.516;13.420;2023-04-24T06:33:06;5.13;;;2.80;;
72065;SDS011;59939;52.516;13.420;2023-04-24T06:36:16;5.50;;;2.25;;
72065;SDS011;59939;52.516;13.420;2023-04-24T06:39:20;7.50;;;2.50;;
72065;SDS011;59939;52.516;13.420;2023-04-24T06:42:24;5.45;;;2.17;;
72065;SDS011;59939;52.516;13.420;2023-04-24T06:45:28;7.68;;;2.00;;
72065;SDS011;59939;52.516;13.420;2023-04-24T06:48:32;7.22;;;2.38;;
72065;SDS011;59939;52.516;13.420;2023-04-24T06:51:36;10.52;;;2.78;;
72065;SDS011;59939;52.516;13.420;2023-04-24T06:54:41;4.30;;;2.28;;
72065;SDS011;59939;52.516;13.420;2023-04-24T06:57:45;4.10;;;2.00;;
72065;SDS011;59939;52.516;13.420;2023-04-24T07:00:51;3.53;;;1.50;;
72065;SDS011;59939;52.516;13.420;2023-04-24T07:03:55;5.22;;;1.90;;
72065;SDS011;59939;52.516;13.420;2023-04-24T07:07:02;5.10;;;1.80;;
72065;SDS011;59939;52.516;13.420;2023-04-24T07:10:05;4.45;;;1.95;;
72065;SDS011;59939;52.516;13.420;2023-04-24T07:13:09;5.47;;;1.63;;
72065;SDS011;59939;52.516;13.420;2023-04-24T07:16:13;4.88;;;1.50;;
72065;SDS011;59939;52.516;13.420;2023-04-24T07:19:19;6.82;;;1.73;;
72065;SDS011;59939;52.516;13.420;2023-04-24T07:22:37;2.55;;;1.45;;
72065;SDS011;59939;52.516;13.420;2023-04-24T07:25:41;2.13;;;0.93;;
72065;SDS011;59939;52.516;13.420;2023-04-24T07:28:47;5.07;;;1.70;;
72065;SDS011;59939;52.516;13.420;2023-04-24T07:31:51;3.45;;;1.38;;
72065;SDS011;59939;52.516;13.420;2023-04-24T07:34:55;3.33;;;1.30;;
72065;SDS011;59939;52.516;13.420;2023-04-24T07:37:59;2.30;;;1.20;;
72065;SDS011;59939;52.516;13.420;2023-04-24T07:41:03;5.93;;;1.35;;
72065;SDS011;59939;52.516;13.420;2023-04-24T07:44:07;4.95;;;1.48;;
72065;SDS011;59939;52.516;13.420;2023-04-24T07:47:11;2.53;;;1.17;;
72065;SDS011;59939;52.516;13.420;2023-04-24T07:50:22;3.42;;;1.20;;
72065;SDS011;59939;52.516;13.420;2023-04-24T07:53:26;2.47;;;1.13;;
72065;SDS011;59939;52.516;13.420;2023-04-24T07:56:31;1.75;;;0.82;;
72065;SDS011;59939;52.516;13.420;2023-04-24T07:59:35;1.58;;;1.15;;
72065;SDS011;59939;52.516;13.420;2023-04-24T08:02:39;5.20;;;1.20;;
72065;SDS011;59939;52.516;13.420;2023-04-24T08:05:43;4.38;;;1.23;;
72065;SDS011;59939;52.516;13.420;2023-04-24T08:08:56;2.72;;;1.10;;
72065;SDS011;59939;52.516;13.420;2023-04-24T08:12:02;1.05;;;0.95;;
72065;SDS011;59939;52.516;13.420;2023-04-24T08:15:06;3.83;;;1.17;;
72065;SDS011;59939;52.516;13.420;2023-04-24T08:18:17;2.45;;;1.20;;
72065;SDS011;59939;52.516;13.420;2023-04-24T08:21:21;2.38;;;0.95;;
72065;SDS011;59939;52.516;13.420;2023-04-24T08:24:25;2.80;;;1.10;;
72065;SDS011;59939;52.516;13.420;2023-04-24T08:27:29;2.65;;;1.25;;
72065;SDS011;59939;52.516;13.420;2023-04-24T08:30:33;2.90;;;1.02;;
72065;SDS011;59939;52.516;13.420;2023-04-24T08:33:37;2.63;;;1.42;;
72065;SDS011;59939;52.516;13.420;2023-04-24T08:36:43;3.92;;;1.17;;
72065;SDS011;59939;52.516;13.420;2023-04-24T08:39:50;1.60;;;0.93;;
72065;SDS011;59939;52.516;13.420;2023-04-24T08:42:56;2.95;;;1.40;;
72065;SDS011;59939;52.516;13.420;2023-04-24T08:46:03;3.13;;;1.02;;
72065;SDS011;59939;52.516;13.420;2023-04-24T08:49:10;2.38;;;0.90;;
72065;SDS011;59939;52.516;13.420;2023-04-24T08:52:22;3.70;;;1.30;;
72065;SDS011;59939;52.516;13.420;2023-04-24T08:55:33;1.50;;;1.08;;
72065;SDS011;59939;52.516;13.420;2023-04-24T08:58:45;1.58;;;1.00;;
72065;SDS011;59939;52.516;13.420;2023-04-24T09:01:49;3.72;;;1.00;;
72065;SDS011;59939;52.516;13.420;2023-04-24T09:04:54;3.05;;;0.80;;
72065;SDS011;59939;52.516;13.420;2023-04-24T09:08:00;3.28;;;0.95;;
72065;SDS011;59939;52.516;13.420;2023-04-24T09:11:05;3.75;;;1.20;;
72065;SDS011;59939;52.516;13.420;2023-04-24T09:14:16;1.92;;;0.73;;
72065;SDS011;59939;52.516;13.420;2023-04-24T09:17:20;5.40;;;1.50;;
72065;SDS011;59939;52.516;13.420;2023-04-24T09:20:26;5.32;;;1.10;;
72065;SDS011;59939;52.516;13.420;2023-04-24T09:23:44;2.90;;;1.05;;
72065;SDS011;59939;52.516;13.420;2023-04-24T09:26:49;3.92;;;1.38;;
72065;SDS011;59939;52.516;13.420;2023-04-24T09:29:59;2.30;;;1.13;;
72065;SDS011;59939;52.516;13.420;2023-04-24T09:33:10;4.00;;;1.10;;
72065;SDS011;59939;52.516;13.420;2023-04-24T09:36:14;6.30;;;2.45;;
72065;SDS011;59939;52.516;13.420;2023-04-24T09:39:20;3.88;;;1.30;;
72065;SDS011;59939;52.516;13.420;2023-04-24T09:42:24;4.63;;;1.40;;
72065;SDS011;59939;52.516;13.420;2023-04-24T09:45:36;4.22;;;1.40;;
72065;SDS011;59939;52.516;13.420;2023-04-24T09:48:41;4.45;;;1.42;;
72065;SDS011;59939;52.516;13.420;2023-04-24T09:51:44;4.07;;;1.50;;
72065;SDS011;59939;52.516;13.420;2023-04-24T09:54:52;3.63;;;1.20;;
72065;SDS011;59939;52.516;13.420;2023-04-24T09:57:57;2.47;;;1.10;;
72065;SDS011;59939;52.516;13.420;2023-04-24T10:01:15;2.53;;;1.05;;
72065;SDS011;59939;52.516;13.420;2023-04-24T10:04:23;5.63;;;1.40;;
72065;SDS011;59939;52.516;13.420;2023-04-24T10:07:28;9.13;;;1.65;;
72065;SDS011;59939;52.516;13.420;2023-04-24T10:10:32;3.75;;;1.40;;
72065;SDS011;59939;52.516;13.420;2023-04-24T10:13:36;2.53;;;0.90;;
72065;SDS011;59939;52.516;13.420;2023-04-24T10:16:39;2.22;;;0.93;;
72065;SDS011;59939;52.516;13.420;2023-04-24T10:19:44;3.85;;;1.20;;
72065;SDS011;59939;52.516;13.420;2023-04-24T10:22:50;2.88;;;1.20;;
72065;SDS011;59939;52.516;13.420;2023-04-24T10:25:57;3.58;;;1.30;;
72065;SDS011;59939;52.516;13.420;2023-04-24T10:29:06;4.80;;;1.10;;
72065;SDS011;59939;52.516;13.420;2023-04-24T10:32:18;5.95;;;1.50;;
72065;SDS011;59939;52.516;13.420;2023-04-24T10:35:22;3.30;;;1.27;;
72065;SDS011;59939;52.516;13.420;2023-04-24T10:38:32;1.88;;;1.08;;
72065;SDS011;59939;52.516;13.420;2023-04-24T10:41:38;1.27;;;1.02;;
72065;SDS011;59939;52.516;13.420;2023-04-24T10:44:42;4.55;;;0.90;;
72065;SDS011;59939;52.516;13.420;2023-04-24T10:51:18;1.73;;;0.93;;
72065;SDS011;59939;52.516;13.420;2023-04-24T10:54:26;2.00;;;1.08;;
72065;SDS011;59939;52.516;13.420;2023-04-24T10:57:37;4.00;;;1.10;;
72065;SDS011;59939;52.516;13.420;2023-04-24T11:00:42;3.83;;;1.10;;
72065;SDS011;59939;52.516;13.420;2023-04-24T11:03:51;2.25;;;1.13;;
72065;SDS011;59939;52.516;13.420;2023-04-24T11:06:57;3.75;;;1.20;;
72065;SDS011;59939;52.516;13.420;2023-04-24T11:10:01;4.00;;;1.92;;
72065;SDS011;59939;52.516;13.420;2023-04-24T11:13:08;0.77;;;0.77;;
72065;SDS011;59939;52.516;13.420;2023-04-24T11:16:15;2.20;;;0.80;;
72065;SDS011;59939;52.516;13.420;2023-04-24T11:19:26;4.38;;;1.40;;
72065;SDS011;59939;52.516;13.420;2023-04-24T11:22:35;3.67;;;1.25;;
72065;SDS011;59939;52.516;13.420;2023-04-24T11:25:40;1.88;;;0.95;;
72065;SDS011;59939;52.516;13.420;2023-04-24T11:28:47;6.05;;;1.40;;
72065;SDS011;59939;52.516;13.420;2023-04-24T11:31:55;3.78;;;1.40;;
72065;SDS011;59939;52.516;13.420;2023-04-24T11:35:05;3.47;;;1.08;;
72065;SDS011;59939;52.516;13.420;2023-04-24T11:38:09;2.53;;;1.30;;
72065;SDS011;59939;52.516;13.420;2023-04-24T11:41:16;3.00;;;1.45;;
72065;SDS011;59939;52.516;13.420;2023-04-24T11:44:24;5.55;;;1.83;;
72065;SDS011;59939;52.516;13.420;2023-04-24T11:47:31;4.25;;;1.55;;
72065;SDS011;59939;52.516;13.420;2023-04-24T11:50:37;1.38;;;1.15;;
72065;SDS011;59939;52.516;13.420;2023-04-24T11:57:21;7.32;;;1.60;;
72065;SDS011;59939;52.516;13.420;2023-04-24T12:00:30;3.90;;;1.65;;
72065;SDS011;59939;52.516;13.420;2023-04-24T12:03:34;3.03;;;1.38;;
72065;SDS011;59939;52.516;13.420;2023-04-24T12:06:38;7.65;;;1.52;;
72065;SDS011;59939;52.516;13.420;2023-04-24T12:09:49;4.78;;;2.03;;
72065;SDS011;59939;52.516;13.420;2023-04-24T12:12:56;5.68;;;1.60;;
72065;SDS011;59939;52.516;13.420;2023-04-24T12:16:04;5.20;;;1.50;;
72065;SDS011;59939;52.516;13.420;2023-04-24T12:19:09;2.58;;;1.45;;
72065;SDS011;59939;52.516;13.420;2023-04-24T12:22:16;2.85;;;1.55;;
72065;SDS011;59939;52.516;13.420;2023-04-24T12:25:20;6.00;;;1.80;;
72065;SDS011;59939;52.516;13.420;2023-04-24T12:28:24;2.70;;;1.30;;
72065;SDS011;59939;52.516;13.420;2023-04-24T12:31:27;2.78;;;1.48;;
72065;SDS011;59939;52.516;13.420;2023-04-24T12:34:33;3.38;;;1.50;;
72065;SDS011;59939;52.516;13.420;2023-04-24T12:37:41;2.63;;;1.10;;
72065;SDS011;59939;52.516;13.420;2023-04-24T12:41:03;1.55;;;0.88;;
72065;SDS011;59939;52.516;13.420;2023-04-24T12:44:10;3.47;;;1.13;;
72065;SDS011;59939;52.516;13.420;2023-04-24T12:47:14;2.53;;;0.80;;
72065;SDS011;59939;52.516;13.420;2023-04-24T12:50:19;3.80;;;1.02;;
72065;SDS011;59939;52.516;13.420;2023-04-24T12:53:24;6.05;;;1.48;;
72065;SDS011;59939;52.516;13.420;2023-04-24T12:56:32;3.83;;;1.38;;
72065;SDS011;59939;52.516;13.420;2023-04-24T12:59:44;1.23;;;0.65;;
72065;SDS011;59939;52.516;13.420;2023-04-24T13:02:48;4.35;;;0.88;;
72065;SDS011;59939;52.516;13.420;2023-04-24T13:05:52;4.28;;;1.17;;
72065;SDS011;59939;52.516;13.420;2023-04-24T13:08:56;1.60;;;0.82;;
72065;SDS011;59939;52.516;13.420;2023-04-24T13:12:01;3.78;;;1.10;;
72065;SDS011;59939;52.516;13.420;2023-04-24T13:15:08;2.83;;;0.93;;
72065;SDS011;59939;52.516;13.420;2023-04-24T13:18:12;3.53;;;1.08;;
72065;SDS011;59939;52.516;13.420;2023-04-24T13:21:16;1.08;;;0.80;;
72065;SDS011;59939;52.516;13.420;2023-04-24T13:24:23;4.47;;;1.60;;
72065;SDS011;59939;52.516;13.420;2023-04-24T13:27:32;2.95;;;1.20;;
72065;SDS011;59939;52.516;13.420;2023-04-24T13:30:38;6.72;;;1.25;;
72065;SDS011;59939;52.516;13.420;2023-04-24T13:33:42;3.22;;;1.20;;
72065;SDS011;59939;52.516;13.420;2023-04-24T13:36:46;1.80;;;1.30;;
72065;SDS011;59939;52.516;13.420;2023-04-24T13:39:50;1.25;;;0.77;;
72065;SDS011;59939;52.516;13.420;2023-04-24T13:42:54;2.42;;;1.13;;
72065;SDS011;59939;52.516;13.420;2023-04-24T13:45:58;2.80;;;1.30;;
72065;SDS011;59939;52.516;13.420;2023-04-24T13:49:05;3.72;;;1.02;;
72065;SDS011;59939;52.516;13.420;2023-04-24T13:52:08;4.35;;;1.30;;
72065;SDS011;59939;52.516;13.420;2023-04-24T13:55:13;2.38;;;0.95;;
72065;SDS011;59939;52.516;13.420;2023-04-24T13:58:17;1.60;;;1.05;;
72065;SDS011;59939;52.516;13.420;2023-04-24T14:01:21;2.72;;;1.13;;
72065;SDS011;59939;52.516;13.420;2023-04-24T14:04:42;2.65;;;1.35;;
72065;SDS011;59939;52.516;13.420;2023-04-24T14:07:48;2.58;;;1.10;;
72065;SDS011;59939;52.516;13.420;2023-04-24T14:10:51;3.85;;;1.25;;
72065;SDS011;59939;52.516;13.420;2023-04-24T14:13:55;3.20;;;1.02;;
72065;SDS011;59939;52.516;13.420;2023-04-24T14:17:02;3.78;;;1.15;;
72065;SDS011;59939;52.516;13.420;2023-04-24T14:20:07;0.90;;;0.77;;
72065;SDS011;59939;52.516;13.420;2023-04-24T14:23:13;0.98;;;0.85;;
72065;SDS011;59939;52.516;13.420;2023-04-24T14:26:17;2.40;;;1.02;;
72065;SDS011;59939;52.516;13.420;2023-04-24T14:29:20;4.68;;;1.38;;
72065;SDS011;59939;52.516;13.420;2023-04-24T14:32:25;1.30;;;0.93;;
72065;SDS011;59939;52.516;13.420;2023-04-24T14:35:32;4.32;;;1.10;;
72065;SDS011;59939;52.516;13.420;2023-04-24T14:38:37;5.22;;;1.30;;
72065;SDS011;59939;52.516;13.420;2023-04-24T14:41:45;3.97;;;1.40;;
72065;SDS011;59939;52.516;13.420;2023-04-24T14:44:49;3.35;;;1.13;;
72065;SDS011;59939;52.516;13.420;2023-04-24T14:47:52;6.57;;;1.60;;
72065;SDS011;59939;52.516;13.420;2023-04-24T14:50:56;5.20;;;1.52;;
72065;SDS011;59939;52.516;13.420;2023-04-24T14:54:04;3.47;;;1.10;;
72065;SDS011;59939;52.516;13.420;2023-04-24T14:57:07;1.85;;;1.15;;
72065;SDS011;59939;52.516;13.420;2023-04-24T15:00:11;3.05;;;1.10;;
72065;SDS011;59939;52.516;13.420;2023-04-24T15:03:15;5.47;;;1.35;;
72065;SDS011;59939;52.516;13.420;2023-04-24T15:06:24;5.75;;;1.45;;
72065;SDS011;59939;52.516;13.420;2023-04-24T15:09:31;2.67;;;1.10;;
72065;SDS011;59939;52.516;13.420;2023-04-24T15:12:36;2.17;;;1.25;;
72065;SDS011;59939;52.516;13.420;2023-04-24T15:15:42;5.25;;;1.20;;
72065;SDS011;59939;52.516;13.420;2023-04-24T15:19:01;3.72;;;1.33;;
72065;SDS011;59939;52.516;13.420;2023-04-24T15:22:09;1.60;;;1.13;;
72065;SDS011;59939;52.516;13.420;2023-04-24T15:25:14;1.88;;;1.10;;
72065;SDS011;59939;52.516;13.420;2023-04-24T15:28:18;3.67;;;1.13;;
72065;SDS011;59939;52.516;13.420;2023-04-24T15:31:21;2.85;;;1.23;;
72065;SDS011;59939;52.516;13.420;2023-04-24T15:34:29;2.05;;;1.25;;
72065;SDS011;59939;52.516;13.420;2023-04-24T15:37:32;4.00;;;1.58;;
72065;SDS011;59939;52.516;13.420;2023-04-24T15:40:37;6.10;;;2.00;;
72065;SDS011;59939;52.516;13.420;2023-04-24T15:47:20;3.00;;;1.35;;
72065;SDS011;59939;52.516;13.420;2023-04-24T15:50:23;2.92;;;1.27;;
72065;SDS011;59939;52.516;13.420;2023-04-24T15:53:27;2.50;;;1.13;;
72065;SDS011;59939;52.516;13.420;2023-04-24T15:56:32;3.70;;;1.60;;
72065;SDS011;59939;52.516;13.420;2023-04-24T15:59:35;3.40;;;1.30;;
72065;SDS011;59939;52.516;13.420;2023-04-24T16:02:42;2.78;;;1.40;;
72065;SDS011;59939;52.516;13.420;2023-04-24T16:05:47;4.90;;;1.40;;
72065;SDS011;59939;52.516;13.420;2023-04-24T16:08:50;2.90;;;1.42;;
72065;SDS011;59939;52.516;13.420;2023-04-24T16:11:56;1.70;;;1.10;;
72065;SDS011;59939;52.516;13.420;2023-04-24T16:15:00;8.10;;;1.52;;
72065;SDS011;59939;52.516;13.420;2023-04-24T16:18:05;2.10;;;1.10;;
72065;SDS011;59939;52.516;13.420;2023-04-24T16:21:08;3.88;;;1.42;;
72065;SDS011;59939;52.516;13.420;2023-04-24T16:24:12;3.28;;;1.40;;
72065;SDS011;59939;52.516;13.420;2023-04-24T16:27:24;1.60;;;1.20;;
72065;SDS011;59939;52.516;13.420;2023-04-24T16:30:35;4.95;;;1.30;;
72065;SDS011;59939;52.516;13.420;2023-04-24T16:33:49;2.70;;;1.25;;
72065;SDS011;59939;52.516;13.420;2023-04-24T16:36:53;5.45;;;1.65;;
72065;SDS011;59939;52.516;13.420;2023-04-24T16:39:57;3.67;;;1.50;;
72065;SDS011;59939;52.516;13.420;2023-04-24T16:43:00;4.78;;;1.50;;
72065;SDS011;59939;52.516;13.420;2023-04-24T16:46:04;7.55;;;2.00;;
72065;SDS011;59939;52.516;13.420;2023-04-24T16:49:10;6.63;;;1.20;;
72065;SDS011;59939;52.516;13.420;2023-04-24T16:52:13;3.60;;;1.38;;
72065;SDS011;59939;52.516;13.420;2023-04-24T16:55:17;1.95;;;1.13;;
72065;SDS011;59939;52.516;13.420;2023-04-24T16:58:21;1.95;;;1.25;;
72065;SDS011;59939;52.516;13.420;2023-04-24T17:01:27;2.22;;;1.13;;
72065;SDS011;59939;52.516;13.420;2023-04-24T17:04:31;1.92;;;1.23;;
72065;SDS011;59939;52.516;13.420;2023-04-24T17:07:38;2.63;;;1.20;;
72065;SDS011;59939;52.516;13.420;2023-04-24T17:10:43;1.50;;;1.00;;
72065;SDS011;59939;52.516;13.420;2023-04-24T17:13:49;2.05;;;1.10;;
72065;SDS011;59939;52.516;13.420;2023-04-24T17:16:56;1.95;;;1.30;;
72065;SDS011;59939;52.516;13.420;2023-04-24T17:20:02;6.32;;;1.90;;
72065;SDS011;59939;52.516;13.420;2023-04-24T17:23:08;3.42;;;1.23;;
72065;SDS011;59939;52.516;13.420;2023-04-24T17:26:29;2.08;;;1.00;;
72065;SDS011;59939;52.516;13.420;2023-04-24T17:29:37;4.13;;;1.30;;
72065;SDS011;59939;52.516;13.420;2023-04-24T17:32:40;3.17;;;1.40;;
72065;SDS011;59939;52.516;13.420;2023-04-24T17:35:44;2.63;;;1.50;;
72065;SDS011;59939;52.516;13.420;2023-04-24T17:38:52;3.38;;;0.90;;
72065;SDS011;59939;52.516;13.420;2023-04-24T17:41:55;3.17;;;1.33;;
72065;SDS011;59939;52.516;13.420;2023-04-24T17:44:59;1.95;;;1.23;;
72065;SDS011;59939;52.516;13.420;2023-04-24T17:48:06;3.10;;;1.23;;
72065;SDS011;59939;52.516;13.420;2023-04-24T17:51:10;5.70;;;1.83;;
72065;SDS011;59939;52.516;13.420;2023-04-24T17:54:14;5.17;;;1.50;;
72065;SDS011;59939;52.516;13.420;2023-04-24T18:00:50;3.60;;;1.20;;
72065;SDS011;59939;52.516;13.420;2023-04-24T18:03:57;3.85;;;1.77;;
72065;SDS011;59939;52.516;13.420;2023-04-24T18:07:04;4.20;;;1.42;;
72065;SDS011;59939;52.516;13.420;2023-04-24T18:10:08;5.18;;;1.85;;
72065;SDS011;59939;52.516;13.420;2023-04-24T18:13:14;3.55;;;1.80;;
72065;SDS011;59939;52.516;13.420;2023-04-24T18:16:18;4.72;;;2.03;;
72065;SDS011;59939;52.516;13.420;2023-04-24T18:19:21;1.80;;;1.40;;
72065;SDS011;59939;52.516;13.420;2023-04-24T18:22:25;5.03;;;1.50;;
72065;SDS011;59939;52.516;13.420;2023-04-24T18:25:29;5.18;;;2.33;;
72065;SDS011;59939;52.516;13.420;2023-04-24T18:28:33;3.63;;;1.48;;
72065;SDS011;59939;52.516;13.420;2023-04-24T18:31:37;1.08;;;0.98;;
72065;SDS011;59939;52.516;13.420;2023-04-24T18:34:41;1.08;;;0.98;;
72065;SDS011;59939;52.516;13.420;2023-04-24T18:37:45;1.20;;;1.10;;